createdAt,value
2022-09-26T00:01:47.266Z,38.13
2022-09-26T00:04:50.242Z,40.10
2022-09-26T00:07:52.439Z,39.65
2022-09-26T00:11:00.690Z,39.67
2022-09-26T00:14:06.871Z,39.65
2022-09-26T00:17:09.054Z,37.17
2022-09-26T00:20:11.243Z,41.87
2022-09-26T00:23:13.416Z,40.13
2022-09-26T00:26:17.167Z,38.65
2022-09-26T00:29:19.411Z,37.50
2022-09-26T00:32:21.776Z,35.87
2022-09-26T00:35:24.903Z,41.20
2022-09-26T00:38:27.043Z,40.70
2022-09-26T00:41:29.309Z,46.30
2022-09-26T00:44:48.571Z,39.20
2022-09-26T00:47:58.156Z,36.57
2022-09-26T00:51:00.754Z,38.33
2022-09-26T00:54:03.602Z,41.03
2022-09-26T00:57:13.297Z,40.38
2022-09-26T01:00:18.160Z,46.38
2022-09-26T01:03:22.984Z,40.37
2022-09-26T01:06:25.191Z,42.53
2022-09-26T01:09:27.635Z,45.70
2022-09-26T01:12:30.334Z,44.95
2022-09-26T01:15:32.529Z,44.78
2022-09-26T01:18:35.137Z,51.10
2022-09-26T01:21:55.650Z,51.30
2022-09-26T01:25:07.649Z,50.00
2022-09-26T01:28:26.424Z,50.47
2022-09-26T01:31:28.572Z,50.38
2022-09-26T01:34:38.590Z,48.27
2022-09-26T01:37:49.915Z,51.20
2022-09-26T01:41:14.174Z,51.45
2022-09-26T01:44:34.010Z,53.30
2022-09-26T01:47:56.048Z,50.42
2022-09-26T01:51:04.345Z,49.67
2022-09-26T01:54:11.612Z,47.93
2022-09-26T01:57:30.187Z,47.38
2022-09-26T02:00:34.813Z,46.90
2022-09-26T02:03:40.684Z,46.03
2022-09-26T02:06:44.855Z,53.50
2022-09-26T02:10:00.021Z,50.13
2022-09-26T02:13:11.058Z,46.45
2022-09-26T02:16:28.097Z,48.03
2022-09-26T02:19:36.368Z,48.22
2022-09-26T02:22:38.789Z,48.90
2022-09-26T02:25:41.116Z,49.30
2022-09-26T02:28:43.698Z,50.47
2022-09-26T02:31:55.960Z,50.22
2022-09-26T02:35:00.143Z,52.92
2022-09-26T02:38:05.746Z,52.93
2022-09-26T02:41:14.970Z,51.40
2022-09-26T02:44:29.140Z,55.05
2022-09-26T02:47:49.861Z,51.20
2022-09-26T02:51:10.840Z,55.03
2022-09-26T02:54:29.024Z,51.20
2022-09-26T02:57:37.211Z,54.80
2022-09-26T03:01:05.166Z,49.60
2022-09-26T03:04:46.783Z,52.38
2022-09-26T03:07:59.769Z,49.38
2022-09-26T03:11:08.256Z,45.40
2022-09-26T03:14:11.449Z,49.20
2022-09-26T03:17:15.681Z,53.17
2022-09-26T03:20:20.649Z,50.30
2022-09-26T03:23:26.048Z,49.00
2022-09-26T03:26:32.524Z,52.03
2022-09-26T03:29:39.303Z,59.73
2022-09-26T03:32:44.948Z,55.45
2022-09-26T03:35:48.764Z,53.50
2022-09-26T03:38:51.315Z,59.13
2022-09-26T03:42:16.618Z,54.47
2022-09-26T03:45:21.214Z,56.37
2022-09-26T03:48:35.316Z,63.22
2022-09-26T03:51:38.043Z,59.72
2022-09-26T03:54:40.396Z,62.70
2022-09-26T03:57:42.796Z,75.30
2022-09-26T04:00:54.679Z,59.50
2022-09-26T04:03:57.789Z,60.00
2022-09-26T04:07:00.587Z,60.28
2022-09-26T04:10:02.991Z,58.45
2022-09-26T04:13:06.264Z,83.93
2022-09-26T04:16:09.950Z,58.87
2022-09-26T04:19:12.470Z,62.63
2022-09-26T04:22:14.720Z,62.45
2022-09-26T04:25:19.339Z,63.58
2022-09-26T04:28:21.722Z,59.63
2022-09-26T04:31:30.787Z,61.67
2022-09-26T04:34:41.067Z,53.78
2022-09-26T04:37:45.185Z,50.60
2022-09-26T04:40:48.789Z,48.67
2022-09-26T04:43:53.707Z,47.43
2022-09-26T04:46:56.043Z,48.83
2022-09-26T04:50:08.446Z,53.25
2022-09-26T04:53:12.504Z,52.75
2022-09-26T04:56:24.618Z,55.85
2022-09-26T04:59:26.831Z,54.47
2022-09-26T05:02:34.533Z,56.40
2022-09-26T05:05:36.779Z,66.00
2022-09-26T05:08:41.284Z,74.18
2022-09-26T05:11:43.988Z,72.20
2022-09-26T05:14:48.513Z,71.73
2022-09-26T05:17:56.579Z,75.00
2022-09-26T05:21:00.608Z,82.60
2022-09-26T05:24:21.374Z,71.40
2022-09-26T05:27:24.319Z,59.95
2022-09-26T05:30:32.184Z,65.23
2022-09-26T05:33:37.926Z,64.77
2022-09-26T05:36:42.846Z,60.83
2022-09-26T05:40:03.675Z,70.10
2022-09-26T05:43:08.226Z,67.07
2022-09-26T05:46:11.745Z,60.97
2022-09-26T05:49:20.440Z,64.97
2022-09-26T05:52:23.084Z,68.22
2022-09-26T05:55:27.953Z,65.97
2022-09-26T05:59:09.085Z,62.15
2022-09-26T06:02:23.659Z,63.17
2022-09-26T06:05:42.564Z,62.30
2022-09-26T06:08:51.795Z,61.00
2022-09-26T06:12:23.528Z,61.78
2022-09-26T06:15:25.671Z,75.10
2022-09-26T06:18:27.933Z,72.93
2022-09-26T06:21:30.560Z,68.73
2022-09-26T06:24:45.149Z,60.20
2022-09-26T06:27:59.796Z,61.42
2022-09-26T06:31:14.459Z,60.00
2022-09-26T06:34:36.213Z,62.57
2022-09-26T06:38:06.045Z,61.83
2022-09-26T06:41:09.034Z,65.45
2022-09-26T06:44:12.937Z,58.33
2022-09-26T06:47:40.715Z,59.42
2022-09-26T06:51:03.368Z,64.00
2022-09-26T06:54:06.663Z,59.43
2022-09-26T06:57:14.922Z,61.05
2022-09-26T07:00:18.478Z,60.85
2022-09-26T07:03:45.077Z,60.33
2022-09-26T07:07:23.958Z,49.77
2022-09-26T07:10:29.714Z,49.37
2022-09-26T07:13:39.464Z,48.97
2022-09-26T07:16:42.501Z,44.85
2022-09-26T07:19:58.656Z,47.10
2022-09-26T07:23:20.182Z,46.67
2022-09-26T07:26:23.375Z,46.10
2022-09-26T07:29:27.388Z,42.53
2022-09-26T07:32:31.509Z,42.22
2022-09-26T07:35:48.732Z,39.97
2022-09-26T07:38:51.621Z,39.17
2022-09-26T07:41:55.639Z,35.73
2022-09-26T07:48:41.039Z,35.85
2022-09-26T07:52:13.219Z,34.58
2022-09-26T07:55:58.398Z,32.63
2022-09-26T07:59:14.805Z,32.27
2022-09-26T08:02:32.444Z,34.80
2022-09-26T08:05:35.633Z,35.03
2022-09-26T08:08:39.439Z,37.38
2022-09-26T08:12:07.740Z,33.90
2022-09-26T08:15:45.202Z,30.73
2022-09-26T08:18:55.958Z,31.85
2022-09-26T08:21:59.756Z,32.72
2022-09-26T08:25:02.232Z,34.90
2022-09-26T08:28:12.924Z,33.10
2022-09-26T08:31:18.014Z,41.77
2022-09-26T08:34:25.262Z,29.58
2022-09-26T08:37:46.701Z,27.88
2022-09-26T08:41:32.676Z,27.80
2022-09-26T08:44:58.888Z,24.43
2022-09-26T08:48:20.512Z,24.30
2022-09-26T08:51:46.639Z,23.20
2022-09-26T08:54:51.583Z,19.02
2022-09-26T08:58:37.993Z,19.85
2022-09-26T09:01:42.498Z,20.57
2022-09-26T09:05:15.434Z,17.10
2022-09-26T09:08:24.644Z,19.20
2022-09-26T09:12:27.047Z,20.08
2022-09-26T09:15:57.303Z,20.08
2022-09-26T09:19:44.083Z,18.40
2022-09-26T09:23:33.871Z,18.93
2022-09-26T09:30:40.784Z,16.83
2022-09-26T09:34:04.152Z,15.27
2022-09-26T09:37:47.281Z,15.40
2022-09-26T09:41:22.012Z,13.60
2022-09-26T09:44:46.430Z,12.23
2022-09-26T09:47:50.314Z,11.52
2022-09-26T09:51:03.545Z,11.68
2022-09-26T09:54:31.426Z,13.33
2022-09-26T09:57:49.569Z,13.80
2022-09-26T10:01:19.085Z,12.55
2022-09-26T10:04:35.796Z,12.35
2022-09-26T10:07:39.712Z,11.98
2022-09-26T10:11:42.193Z,11.53
2022-09-26T10:15:07.920Z,11.60
2022-09-26T10:18:28.538Z,10.18
2022-09-26T10:21:48.686Z,12.35
2022-09-26T10:24:52.908Z,11.68
2022-09-26T10:27:57.358Z,13.70
2022-09-26T10:31:08.461Z,14.67
2022-09-26T10:34:32.368Z,15.25
2022-09-26T10:37:37.131Z,12.73
2022-09-26T10:40:59.654Z,10.57
2022-09-26T10:44:03.814Z,11.20
2022-09-26T10:47:26.799Z,11.13
2022-09-26T10:50:52.272Z,11.05
2022-09-26T10:54:19.253Z,8.15
2022-09-26T10:57:30.710Z,7.90
2022-09-26T11:00:33.480Z,8.40
2022-09-26T11:03:42.614Z,7.33
2022-09-26T11:07:06.204Z,7.15
2022-09-26T11:10:17.600Z,7.85
2022-09-26T11:14:03.585Z,8.77
2022-09-26T11:17:08.880Z,8.07
2022-09-26T11:20:27.790Z,8.57
2022-09-26T11:23:45.032Z,9.77
2022-09-26T11:27:04.417Z,9.10
2022-09-26T11:30:12.989Z,8.63
2022-09-26T11:33:20.431Z,8.87
2022-09-26T11:37:03.670Z,8.57
2022-09-26T11:40:38.142Z,11.02
2022-09-26T11:43:53.643Z,7.72
2022-09-26T11:47:50.182Z,6.63
2022-09-26T11:51:08.218Z,6.57
2022-09-26T11:54:47.900Z,6.80
2022-09-26T11:58:04.781Z,7.03
2022-09-26T12:01:30.993Z,31.00
2022-09-26T12:04:49.968Z,7.93
2022-09-26T12:08:14.908Z,6.37
2022-09-26T12:12:15.325Z,7.47
2022-09-26T12:15:55.196Z,6.20
2022-09-26T12:19:15.543Z,7.93
2022-09-26T12:22:37.660Z,5.95
2022-09-26T12:26:01.380Z,5.80
2022-09-26T12:29:06.634Z,5.00
2022-09-26T12:32:39.608Z,5.97
2022-09-26T12:35:48.143Z,5.00
2022-09-26T12:39:02.259Z,5.38
2022-09-26T12:42:27.544Z,5.23
2022-09-26T12:45:53.345Z,5.50
2022-09-26T12:49:14.402Z,5.15
2022-09-26T12:52:41.204Z,5.72
2022-09-26T12:56:15.475Z,5.68
2022-09-26T12:59:54.733Z,5.60
2022-09-26T13:03:16.033Z,5.77
2022-09-26T13:07:18.272Z,6.00
2022-09-26T13:10:31.921Z,5.70
2022-09-26T13:14:12.382Z,5.72
2022-09-26T13:17:18.814Z,5.63
2022-09-26T13:20:43.384Z,5.40
2022-09-26T13:23:53.624Z,5.43
2022-09-26T13:27:23.735Z,5.80
2022-09-26T13:30:29.484Z,6.07
2022-09-26T13:33:48.473Z,5.27
2022-09-26T13:36:51.305Z,6.40
2022-09-26T13:40:05.074Z,5.30
2022-09-26T13:43:20.368Z,5.47
2022-09-26T13:46:41.975Z,4.68
2022-09-26T13:50:03.190Z,5.40
2022-09-26T13:53:25.063Z,5.07
2022-09-26T13:56:31.354Z,5.30
2022-09-26T13:59:51.491Z,5.20
2022-09-26T14:03:18.022Z,4.80
2022-09-26T14:06:27.338Z,5.30
2022-09-26T14:09:55.255Z,5.33
2022-09-26T14:13:08.346Z,4.50
2022-09-26T14:16:28.634Z,4.50
2022-09-26T14:19:37.000Z,5.45
2022-09-26T14:22:53.072Z,4.97
2022-09-26T14:25:56.698Z,5.07
2022-09-26T14:29:31.070Z,5.15
2022-09-26T14:32:38.724Z,4.22
2022-09-26T14:35:43.215Z,4.40
2022-09-26T14:38:50.424Z,5.00
2022-09-26T14:41:53.574Z,5.60
2022-09-26T14:45:01.288Z,4.10
2022-09-26T14:48:12.934Z,4.75
2022-09-26T14:51:16.124Z,4.43
2022-09-26T14:54:27.305Z,4.40
2022-09-26T14:57:34.220Z,5.07
2022-09-26T15:00:43.206Z,3.78
2022-09-26T15:04:03.211Z,4.93
2022-09-26T15:07:15.238Z,4.57
2022-09-26T15:10:46.929Z,4.73
2022-09-26T15:13:52.152Z,4.60
2022-09-26T15:16:56.167Z,3.95
2022-09-26T15:20:00.896Z,4.50
2022-09-26T15:23:22.531Z,4.78
2022-09-26T15:26:27.576Z,4.00
2022-09-26T15:29:29.915Z,4.37
2022-09-26T15:32:33.416Z,5.22
2022-09-26T15:35:35.569Z,4.55
2022-09-26T15:38:39.040Z,5.00
2022-09-26T15:42:03.435Z,5.03
2022-09-26T15:45:28.813Z,4.87
2022-09-26T15:48:35.313Z,5.05
2022-09-26T15:51:39.737Z,5.80
2022-09-26T15:54:42.796Z,4.63
2022-09-26T15:57:45.513Z,5.30
2022-09-26T16:00:50.889Z,4.40
2022-09-26T16:03:59.790Z,4.43
2022-09-26T16:07:19.158Z,6.00
2022-09-26T16:10:28.489Z,9.85
2022-09-26T16:13:35.470Z,8.70
2022-09-26T16:16:38.091Z,6.00
2022-09-26T16:19:50.437Z,9.13
2022-09-26T16:23:04.369Z,10.25
2022-09-26T16:26:23.999Z,8.35
2022-09-26T16:29:34.989Z,9.97
2022-09-26T16:32:37.435Z,11.57
2022-09-26T16:35:47.318Z,17.13
2022-09-26T16:39:00.507Z,20.27
2022-09-26T16:42:15.061Z,15.95
2022-09-26T16:45:17.331Z,11.30
2022-09-26T16:48:40.687Z,15.43
2022-09-26T16:52:22.844Z,13.77
2022-09-26T16:55:26.140Z,12.88
2022-09-26T16:58:28.402Z,20.05
2022-09-26T17:01:50.027Z,16.23
2022-09-26T17:04:54.171Z,15.87
2022-09-26T17:07:56.376Z,14.20
2022-09-26T17:11:02.701Z,16.13
2022-09-26T17:14:07.121Z,17.92
2022-09-26T17:17:21.721Z,19.77
2022-09-26T17:20:24.436Z,21.87
2022-09-26T17:23:43.273Z,17.88
2022-09-26T17:27:07.095Z,18.88
2022-09-26T17:30:35.926Z,16.63
2022-09-26T17:33:40.501Z,15.87
2022-09-26T17:36:47.244Z,13.23
2022-09-26T17:39:49.493Z,13.48
2022-09-26T17:42:55.409Z,13.55
2022-09-26T17:45:58.467Z,14.27
2022-09-26T17:49:05.127Z,14.70
2022-09-26T17:52:26.891Z,12.70
2022-09-26T17:55:31.054Z,14.77
2022-09-26T17:58:34.318Z,13.23
2022-09-26T18:01:36.501Z,14.65
2022-09-26T18:04:41.292Z,12.77
2022-09-26T18:07:43.624Z,16.03
2022-09-26T18:10:51.618Z,21.15
2022-09-26T18:13:55.400Z,26.45
2022-09-26T18:16:58.983Z,29.00
2022-09-26T18:20:01.463Z,20.33
2022-09-26T18:23:05.643Z,22.40
2022-09-26T18:26:11.097Z,22.17
2022-09-26T18:29:17.199Z,22.73
2022-09-26T18:32:27.299Z,24.98
2022-09-26T18:35:30.146Z,31.80
2022-09-26T18:38:32.590Z,25.70
2022-09-26T18:41:35.441Z,25.73
2022-09-26T18:44:37.952Z,25.92
2022-09-26T18:47:45.566Z,31.38
2022-09-26T18:50:48.565Z,25.60
2022-09-26T18:53:50.865Z,29.73
2022-09-26T18:57:11.958Z,26.52
2022-09-26T19:00:14.372Z,26.10
2022-09-26T19:03:18.584Z,23.27
2022-09-26T19:06:25.124Z,24.50
2022-09-26T19:09:35.279Z,28.30
2022-09-26T19:12:39.849Z,27.90
2022-09-26T19:15:42.535Z,29.45
2022-09-26T19:18:45.392Z,27.25
2022-09-26T19:21:58.496Z,26.57
2022-09-26T19:25:05.553Z,23.10
2022-09-26T19:28:13.755Z,28.15
2022-09-26T19:31:16.360Z,28.20
2022-09-26T19:34:19.386Z,25.88
2022-09-26T19:37:21.652Z,27.30
2022-09-26T19:40:24.796Z,27.30
2022-09-26T19:43:27.088Z,25.05
2022-09-26T19:46:30.537Z,27.23
2022-09-26T19:49:32.928Z,28.80
2022-09-26T19:52:35.756Z,30.07
2022-09-26T19:55:39.435Z,28.13
2022-09-26T19:58:42.835Z,26.98
2022-09-26T20:01:48.679Z,27.88
2022-09-26T20:04:51.332Z,33.65
2022-09-26T20:07:53.941Z,39.43
2022-09-26T20:10:57.867Z,36.03
2022-09-26T20:14:18.486Z,35.60
2022-09-26T20:17:25.420Z,35.92
2022-09-26T20:20:27.840Z,31.38
2022-09-26T20:23:33.104Z,33.30
2022-09-26T20:26:35.587Z,34.63
2022-09-26T20:29:56.225Z,43.08
2022-09-26T20:32:59.262Z,48.63
2022-09-26T20:36:04.310Z,41.22
2022-09-26T20:39:10.424Z,44.97
2022-09-26T20:42:16.776Z,39.23
2022-09-26T20:45:22.632Z,40.75
2022-09-26T20:48:27.413Z,45.60
2022-09-26T20:51:34.336Z,47.72
2022-09-26T20:54:36.571Z,43.13
2022-09-26T20:57:38.751Z,43.83
2022-09-26T21:00:41.935Z,43.60
2022-09-26T21:03:47.606Z,44.85
2022-09-26T21:06:49.767Z,44.38
2022-09-26T21:09:52.280Z,46.47
2022-09-26T21:12:54.833Z,46.97
2022-09-26T21:15:57.002Z,44.88
2022-09-26T21:18:59.128Z,40.00
2022-09-26T21:22:02.739Z,45.15
2022-09-26T21:25:21.766Z,44.60
2022-09-26T21:28:26.725Z,36.10
2022-09-26T21:31:31.532Z,34.75
2022-09-26T21:34:34.327Z,36.75
2022-09-26T21:37:36.734Z,36.30
2022-09-26T21:40:40.329Z,43.13
2022-09-26T21:43:46.904Z,37.70
2022-09-26T21:46:50.446Z,38.58
2022-09-26T21:49:53.550Z,39.47
2022-09-26T21:53:03.036Z,35.80
2022-09-26T21:56:10.446Z,36.23
2022-09-26T21:59:12.727Z,31.60
2022-09-26T22:02:15.050Z,31.38
2022-09-26T22:05:18.343Z,32.20
2022-09-26T22:08:20.626Z,33.88
2022-09-26T22:11:22.912Z,38.13
2022-09-26T22:14:25.738Z,34.90
2022-09-26T22:17:27.940Z,35.85
2022-09-26T22:20:30.096Z,36.15
2022-09-26T22:23:33.494Z,37.03
2022-09-26T22:26:35.821Z,35.10
2022-09-26T22:29:38.028Z,32.07
2022-09-26T22:32:40.241Z,33.15
2022-09-26T22:35:47.446Z,36.45
2022-09-26T22:38:50.312Z,33.58
2022-09-26T22:41:52.859Z,40.47
2022-09-26T22:44:55.081Z,34.53
2022-09-26T22:47:57.261Z,34.53
2022-09-26T22:50:59.623Z,36.50
2022-09-26T22:54:01.973Z,36.53
2022-09-26T22:57:04.419Z,37.23
2022-09-26T23:00:07.470Z,37.23
2022-09-26T23:03:09.638Z,42.67
2022-09-26T23:06:12.098Z,39.90
2022-09-26T23:09:14.302Z,37.47
2022-09-26T23:12:16.629Z,38.80
2022-09-26T23:15:19.403Z,42.30
2022-09-26T23:18:22.307Z,39.50
2022-09-26T23:21:26.937Z,39.58
2022-09-26T23:24:29.376Z,44.25
2022-09-26T23:27:31.700Z,39.37
2022-09-26T23:30:33.873Z,41.10
2022-09-26T23:33:37.761Z,44.05
2022-09-26T23:36:39.894Z,43.67
2022-09-26T23:39:42.986Z,51.35
2022-09-26T23:42:46.175Z,66.80
2022-09-26T23:45:49.725Z,66.27
2022-09-26T23:48:52.876Z,63.83
2022-09-26T23:51:56.069Z,78.85
2022-09-26T23:54:59.056Z,75.00
2022-09-26T23:58:02.281Z,86.20
